createdAt,value
2018-12-04T00:00:56.054Z,98798.05
2018-12-04T00:03:23.713Z,98820.80
2018-12-04T00:05:51.353Z,98826.66
2018-12-04T00:08:18.989Z,98844.64
2018-12-04T00:10:46.889Z,98858.77
2018-12-04T00:13:14.506Z,98878.22
2018-12-04T00:15:42.132Z,98871.69
2018-12-04T00:18:10.109Z,98898.92
2018-12-04T00:20:38.177Z,98914.97
2018-12-04T00:23:06.290Z,98936.84
2018-12-04T00:25:33.894Z,98941.25
2018-12-04T00:28:01.631Z,98948.99
2018-12-04T00:30:29.644Z,98965.20
2018-12-04T00:32:57.665Z,98974.77
2018-12-04T00:35:25.312Z,98984.66
2018-12-04T00:37:52.932Z,98988.27
2018-12-04T00:40:20.917Z,98999.70
2018-12-04T00:42:48.585Z,99006.87
2018-12-04T00:45:16.229Z,99021.87
2018-12-04T00:47:44.291Z,99034.05
2018-12-04T00:50:11.893Z,99039.64
2018-12-04T00:52:39.502Z,99057.77
2018-12-04T00:55:07.082Z,99072.05
2018-12-04T00:57:35.125Z,99074.13
2018-12-04T01:00:02.711Z,99079.95
2018-12-04T01:02:30.284Z,99088.66
2018-12-04T01:04:57.935Z,99092.78
2018-12-04T01:07:25.869Z,99110.61
2018-12-04T01:09:53.469Z,99114.36
2018-12-04T01:12:21.079Z,99121.97
2018-12-04T01:14:48.677Z,99127.19
2018-12-04T01:17:17.620Z,99140.57
2018-12-04T01:19:45.283Z,99147.47
2018-12-04T01:22:12.874Z,99160.61
2018-12-04T01:24:40.482Z,99170.98
2018-12-04T01:27:08.388Z,99179.91
2018-12-04T01:29:36.889Z,99198.63
2018-12-04T01:32:05.108Z,99200.03
2018-12-04T01:34:32.718Z,99205.80
2018-12-04T01:37:00.706Z,99213.29
2018-12-04T01:39:28.317Z,99209.92
2018-12-04T01:41:55.937Z,99214.02
2018-12-04T01:44:23.545Z,99220.41
2018-12-04T01:46:51.162Z,99224.74
2018-12-04T01:49:19.218Z,99231.13
2018-12-04T01:51:46.861Z,99241.27
2018-12-04T01:54:14.464Z,99249.33
2018-12-04T01:56:42.092Z,99254.78
2018-12-04T01:59:10.086Z,99261.27
2018-12-04T02:01:37.669Z,99267.42
2018-12-04T02:04:06.539Z,99270.69
2018-12-04T02:06:34.174Z,99273.81
2018-12-04T02:09:02.167Z,99272.95
2018-12-04T02:11:29.784Z,99282.73
2018-12-04T02:13:57.405Z,99285.39
2018-12-04T02:16:25.349Z,99290.19
2018-12-04T02:18:52.988Z,99292.48
2018-12-04T02:21:20.629Z,99301.05
2018-12-04T02:23:48.265Z,99308.14
2018-12-04T02:26:16.198Z,99311.30
2018-12-04T02:28:43.816Z,99314.92
2018-12-04T02:31:11.420Z,99320.58
2018-12-04T02:33:38.985Z,99320.58
2018-12-04T02:36:07.034Z,99327.31
2018-12-04T02:38:34.692Z,99328.17
2018-12-04T02:41:02.287Z,99332.16
2018-12-04T02:43:29.922Z,99343.73
2018-12-04T02:45:57.536Z,99342.76
2018-12-04T02:48:25.130Z,99353.36
2018-12-04T02:50:53.226Z,99361.67
2018-12-04T02:53:21.470Z,99368.30
2018-12-04T02:55:49.060Z,99372.99
2018-12-04T02:58:17.050Z,99375.03
2018-12-04T03:00:44.946Z,99375.03
2018-12-04T03:03:12.524Z,99381.19
2018-12-04T03:05:40.153Z,99379.40
2018-12-04T03:08:08.238Z,99385.41
2018-12-04T03:10:35.809Z,99390.72
2018-12-04T03:13:03.437Z,99391.44
2018-12-04T03:15:31.710Z,99396.73
2018-12-04T03:17:59.374Z,99401.43
2018-12-04T03:20:27.011Z,99400.96
2018-12-04T03:22:54.618Z,99405.30
2018-12-04T03:25:22.623Z,99415.30
2018-12-04T03:27:50.209Z,99425.91
2018-12-04T03:30:17.787Z,99429.41
2018-12-04T03:32:45.865Z,99423.75
2018-12-04T03:35:13.475Z,99433.61
2018-12-04T03:37:41.052Z,99434.22
2018-12-04T03:40:08.658Z,99438.20
2018-12-04T03:42:36.639Z,99440.49
2018-12-04T03:45:04.193Z,99441.20
2018-12-04T03:47:31.781Z,99442.78
2018-12-04T03:49:59.405Z,99454.22
2018-12-04T03:52:27.317Z,99451.31
2018-12-04T03:54:54.917Z,99467.00
2018-12-04T03:57:23.473Z,99471.09
2018-12-04T03:59:51.076Z,99471.20
2018-12-04T04:02:19.070Z,99480.48
2018-12-04T04:04:46.661Z,99488.92
2018-12-04T04:07:14.234Z,99492.52
2018-12-04T04:09:41.798Z,99491.69
2018-12-04T04:12:10.048Z,99489.03
2018-12-04T04:14:37.711Z,99496.98
2018-12-04T04:17:05.317Z,99501.07
2018-12-04T04:19:32.958Z,99506.88
2018-12-04T04:22:00.968Z,99505.66
2018-12-04T04:24:28.602Z,99514.07
2018-12-04T04:26:56.219Z,99518.66
2018-12-04T04:29:23.850Z,99527.93
2018-12-04T04:31:54.856Z,99534.20
2018-12-04T04:34:22.469Z,99524.20
2018-12-04T04:36:50.049Z,99537.20
2018-12-04T04:39:17.698Z,99540.80
2018-12-04T04:41:45.801Z,99553.89
2018-12-04T04:44:13.386Z,99555.80
2018-12-04T04:46:40.973Z,99566.35
2018-12-04T04:49:09.270Z,99569.34
2018-12-04T04:51:37.262Z,99579.81
2018-12-04T04:54:04.885Z,99584.85
2018-12-04T04:56:32.484Z,99596.77
2018-12-04T04:59:00.086Z,99597.84
2018-12-04T05:01:28.105Z,99594.20
2018-12-04T05:03:55.767Z,99606.31
2018-12-04T05:06:23.410Z,99604.53
2018-12-04T05:08:51.043Z,99610.79
2018-12-04T05:11:18.946Z,99610.86
2018-12-04T05:13:46.538Z,99613.21
2018-12-04T05:16:14.125Z,99619.17
2018-12-04T05:18:41.777Z,99626.31
2018-12-04T05:21:09.798Z,99629.98
2018-12-04T05:23:37.637Z,99642.17
2018-12-04T05:26:05.245Z,99653.17
2018-12-04T05:28:33.186Z,99655.77
2018-12-04T05:31:00.803Z,99653.72
2018-12-04T05:33:29.333Z,99656.83
2018-12-04T05:36:00.815Z,99667.50
2018-12-04T05:38:28.405Z,99666.87
2018-12-04T05:40:55.977Z,99676.35
2018-12-04T05:43:23.871Z,99682.33
2018-12-04T05:45:51.514Z,99687.44
2018-12-04T05:48:19.131Z,99697.77
2018-12-04T05:50:47.056Z,99695.53
2018-12-04T05:53:14.665Z,99710.67
2018-12-04T05:55:42.314Z,99711.72
2018-12-04T05:58:10.361Z,99716.33
2018-12-04T06:00:38.007Z,99713.38
2018-12-04T06:03:05.642Z,99719.67
2018-12-04T06:05:33.550Z,99725.52
2018-12-04T06:08:01.218Z,99729.91
2018-12-04T06:10:28.794Z,99732.51
2018-12-04T06:12:56.759Z,99735.67
2018-12-04T06:15:24.378Z,99735.84
2018-12-04T06:17:51.945Z,99737.81
2018-12-04T06:20:19.824Z,99745.07
2018-12-04T06:22:47.405Z,99754.61
2018-12-04T06:25:15.094Z,99765.84
2018-12-04T06:27:43.186Z,99769.58
2018-12-04T06:30:10.790Z,99778.26
2018-12-04T06:32:38.406Z,99779.03
2018-12-04T06:35:07.079Z,99784.20
2018-12-04T06:37:34.757Z,99793.46
2018-12-04T06:40:02.386Z,99810.11
2018-12-04T06:42:30.333Z,99814.45
2018-12-04T06:44:57.909Z,99817.47
2018-12-04T06:47:25.534Z,99820.02
2018-12-04T06:49:53.529Z,99831.45
2018-12-04T06:52:21.144Z,99830.48
2018-12-04T06:54:48.739Z,99838.55
2018-12-04T06:57:16.693Z,99836.38
2018-12-04T06:59:44.270Z,99852.72
2018-12-04T07:02:11.926Z,99861.52
2018-12-04T07:04:40.006Z,99860.20
2018-12-04T07:07:07.606Z,99866.81
2018-12-04T07:09:35.180Z,99868.23
2018-12-04T07:12:03.091Z,99875.34
2018-12-04T07:14:30.694Z,99886.89
2018-12-04T07:16:58.297Z,99893.42
2018-12-04T07:19:26.409Z,99898.00
2018-12-04T07:21:54.042Z,99917.59
2018-12-04T07:24:21.642Z,99919.89
2018-12-04T07:26:49.561Z,99920.03
2018-12-04T07:29:17.156Z,99931.86
2018-12-04T07:31:44.759Z,99934.22
2018-12-04T07:34:12.755Z,99944.97
2018-12-04T07:36:40.366Z,99942.89
2018-12-04T07:39:08.288Z,99951.77
2018-12-04T07:41:37.114Z,99954.58
2018-12-04T07:44:04.734Z,99959.11
2018-12-04T07:46:32.360Z,99964.69
2018-12-04T07:49:00.369Z,99971.18
2018-12-04T07:51:28.032Z,99975.55
2018-12-04T07:53:58.660Z,99983.58
2018-12-04T07:56:26.642Z,99986.81
2018-12-04T07:58:54.269Z,99993.52
2018-12-04T08:01:21.857Z,99996.83
2018-12-04T08:03:50.542Z,100000.14
2018-12-04T08:06:18.917Z,100004.20
2018-12-04T08:08:46.504Z,100011.77
2018-12-04T08:11:14.549Z,100021.98
2018-12-04T08:13:42.146Z,100026.16
2018-12-04T08:16:10.438Z,100029.34
2018-12-04T08:18:38.428Z,100036.73
2018-12-04T08:21:06.010Z,100042.58
2018-12-04T08:23:33.592Z,100053.36
2018-12-04T08:26:01.531Z,100060.34
2018-12-04T08:28:29.105Z,100069.61
2018-12-04T08:30:56.736Z,100077.05
2018-12-04T08:33:24.751Z,100078.48
2018-12-04T08:35:52.453Z,100083.84
2018-12-04T08:38:20.077Z,100084.27
2018-12-04T08:40:48.123Z,100082.55
2018-12-04T08:43:15.750Z,100086.03
2018-12-04T08:45:43.344Z,100089.34
2018-12-04T08:48:11.317Z,100088.66
2018-12-04T08:50:39.784Z,100089.03
2018-12-04T08:53:07.388Z,100092.92
2018-12-04T08:55:35.422Z,100093.66
2018-12-04T08:58:03.042Z,100102.17
2018-12-04T09:00:30.610Z,100106.59
2018-12-04T09:02:58.613Z,100114.05
2018-12-04T09:05:26.259Z,100112.89
2018-12-04T09:07:53.853Z,100122.37
2018-12-04T09:10:23.230Z,100128.20
2018-12-04T09:12:50.855Z,100130.95
2018-12-04T09:15:18.466Z,100141.56
2018-12-04T09:17:46.438Z,100142.89
2018-12-04T09:20:14.085Z,100144.95
2018-12-04T09:22:41.758Z,100153.47
2018-12-04T09:25:09.918Z,100157.08
2018-12-04T09:27:37.565Z,100165.70
2018-12-04T09:30:05.344Z,100180.84
2018-12-04T09:32:34.405Z,100179.41
2018-12-04T09:35:02.080Z,100191.16
2018-12-04T09:37:29.690Z,100198.52
2018-12-04T09:39:58.546Z,100210.12
2018-12-04T09:42:26.150Z,100215.83
2018-12-04T09:44:53.813Z,100216.37
2018-12-04T09:47:21.854Z,100219.74
2018-12-04T09:49:49.509Z,100216.63
2018-12-04T09:52:17.916Z,100214.06
2018-12-04T09:54:45.867Z,100217.80
2018-12-04T09:57:13.501Z,100218.62
2018-12-04T09:59:41.945Z,100217.16
2018-12-04T10:02:09.876Z,100218.62
2018-12-04T10:04:37.508Z,100223.03
2018-12-04T10:07:05.745Z,100225.80
2018-12-04T10:09:34.549Z,100237.86
2018-12-04T10:12:02.144Z,100250.58
2018-12-04T10:14:29.790Z,100263.41
2018-12-04T10:16:57.769Z,100260.77
2018-12-04T10:19:25.375Z,100263.50
2018-12-04T10:21:52.970Z,100264.47
2018-12-04T10:24:20.992Z,100259.38
2018-12-04T10:26:52.666Z,100256.72
2018-12-04T10:29:20.295Z,100259.58
2018-12-04T10:31:48.293Z,100269.11
2018-12-04T10:34:15.935Z,100271.34
2018-12-04T10:36:43.544Z,100272.91
2018-12-04T10:39:11.539Z,100274.47
2018-12-04T10:41:39.141Z,100275.47
2018-12-04T10:44:06.752Z,100278.43
2018-12-04T10:46:34.782Z,100279.31
2018-12-04T10:49:02.882Z,100278.25
2018-12-04T10:51:30.547Z,100267.69
2018-12-04T10:53:59.553Z,100267.41
2018-12-04T10:56:28.131Z,100278.62
2018-12-04T10:58:57.059Z,100279.23
2018-12-04T11:01:29.057Z,100283.41
2018-12-04T11:03:56.833Z,100292.77
2018-12-04T11:06:24.484Z,100299.94
2018-12-04T11:08:52.515Z,100306.78
2018-12-04T11:11:20.913Z,100314.06
2018-12-04T11:13:48.580Z,100312.48
2018-12-04T11:16:16.514Z,100312.73
2018-12-04T11:18:44.104Z,100309.23
2018-12-04T11:21:12.562Z,100313.60
2018-12-04T11:23:40.561Z,100308.07
2018-12-04T11:26:08.299Z,100305.61
2018-12-04T11:28:35.952Z,100306.78
2018-12-04T11:31:03.933Z,100312.87
2018-12-04T11:33:31.591Z,100316.66
2018-12-04T11:35:59.254Z,100320.47
2018-12-04T11:38:28.213Z,100327.70
2018-12-04T11:40:56.420Z,100320.01
2018-12-04T11:43:24.061Z,100327.05
2018-12-04T11:45:51.816Z,100330.28
2018-12-04T11:48:19.564Z,100332.74
2018-12-04T11:50:47.481Z,100338.16
2018-12-04T11:53:15.108Z,100335.63
2018-12-04T11:55:42.733Z,100340.77
2018-12-04T11:58:12.563Z,100348.09
2018-12-04T12:00:40.291Z,100346.63
2018-12-04T12:03:07.986Z,100351.95
2018-12-04T12:05:37.131Z,100355.42
2018-12-04T12:08:05.719Z,100355.32
2018-12-04T12:10:33.413Z,100361.94
2018-12-04T12:13:01.382Z,100360.75
2018-12-04T12:15:29.115Z,100373.38
2018-12-04T12:17:56.737Z,100366.85
2018-12-04T12:20:24.778Z,100374.80
2018-12-04T12:22:52.465Z,100374.05
2018-12-04T12:25:20.744Z,100381.98
2018-12-04T12:27:48.821Z,100377.69
2018-12-04T12:30:16.456Z,100386.23
2018-12-04T12:32:44.090Z,100387.55
2018-12-04T12:35:12.185Z,100387.45
2018-12-04T12:37:40.665Z,100393.30
2018-12-04T12:40:08.286Z,100401.50
2018-12-04T12:42:37.297Z,100401.21
2018-12-04T12:45:04.909Z,100404.66
2018-12-04T12:47:32.546Z,100404.37
2018-12-04T12:50:01.219Z,100412.39
2018-12-04T12:52:30.603Z,100413.00
2018-12-04T12:54:58.185Z,100422.21
2018-12-04T12:57:26.461Z,100419.84
2018-12-04T12:59:54.109Z,100425.09
2018-12-04T13:02:21.774Z,100420.19
2018-12-04T13:04:49.729Z,100430.47
2018-12-04T13:07:17.407Z,100422.48
2018-12-04T13:09:45.918Z,100423.36
2018-12-04T13:12:14.648Z,100426.73
2018-12-04T13:14:42.336Z,100429.80
2018-12-04T13:17:10.543Z,100429.83
2018-12-04T13:19:38.706Z,100427.07
2018-12-04T13:22:06.326Z,100430.90
2018-12-04T13:24:33.977Z,100428.41
2018-12-04T13:27:02.139Z,100432.33
2018-12-04T13:29:32.293Z,100435.99
2018-12-04T13:32:00.717Z,100445.84
2018-12-04T13:34:29.209Z,100443.18
2018-12-04T13:36:58.727Z,100444.75
2018-12-04T13:39:27.103Z,100449.84
2018-12-04T13:41:55.288Z,100454.80
2018-12-04T13:44:23.650Z,100466.22
2018-12-04T13:46:51.259Z,100470.94
2018-12-04T13:49:19.330Z,100472.38
2018-12-04T13:51:47.036Z,100484.37
2018-12-04T13:54:15.461Z,100492.36
2018-12-04T13:56:43.569Z,100500.45
2018-12-04T13:59:11.217Z,100507.64
2018-12-04T14:01:39.507Z,100500.90
2018-12-04T14:04:07.593Z,100512.09
2018-12-04T14:06:35.231Z,100513.56
2018-12-04T14:09:03.953Z,100509.29
2018-12-04T14:11:31.959Z,100520.52
2018-12-04T14:14:00.219Z,100518.85
2018-12-04T14:16:27.826Z,100528.48
2018-12-04T14:18:55.754Z,100531.41
2018-12-04T14:21:24.795Z,100534.04
2018-12-04T14:23:52.403Z,100545.91
2018-12-04T14:26:20.509Z,100548.84
2018-12-04T14:28:48.113Z,100553.98
2018-12-04T14:31:16.509Z,100558.02
2018-12-04T14:33:44.766Z,100560.38
2018-12-04T14:36:12.866Z,100560.31
2018-12-04T14:38:40.666Z,100567.61
2018-12-04T14:41:08.669Z,100573.83
2018-12-04T14:43:37.517Z,100576.02
2018-12-04T14:46:05.160Z,100586.84
2018-12-04T14:48:33.620Z,100590.94
2018-12-04T14:51:01.314Z,100589.69
2018-12-04T14:53:28.981Z,100591.06
2018-12-04T14:55:57.590Z,100594.18
2018-12-04T14:58:25.230Z,100606.41
2018-12-04T15:00:52.881Z,100603.17
2018-12-04T15:03:20.836Z,100598.66
2018-12-04T15:05:48.472Z,100605.44
2018-12-04T15:08:16.049Z,100613.43
2018-12-04T15:10:44.649Z,100616.61
2018-12-04T15:13:12.492Z,100624.52
2018-12-04T15:15:41.379Z,100630.26
2018-12-04T15:18:09.466Z,100632.78
2018-12-04T15:20:38.083Z,100635.77
2018-12-04T15:23:05.731Z,100636.28
2018-12-04T15:25:34.621Z,100631.18
2018-12-04T15:28:02.314Z,100636.19
2018-12-04T15:30:30.072Z,100643.45
2018-12-04T15:32:58.257Z,100644.50
2018-12-04T15:35:25.901Z,100649.97
2018-12-04T15:37:53.549Z,100655.25
2018-12-04T15:40:21.533Z,100656.37
2018-12-04T15:42:49.205Z,100658.45
2018-12-04T15:45:16.866Z,100660.25
2018-12-04T15:47:44.727Z,100666.88
2018-12-04T15:50:12.961Z,100666.86
2018-12-04T15:52:41.720Z,100674.71
2018-12-04T15:55:09.543Z,100690.42
2018-12-04T15:57:38.157Z,100689.39
2018-12-04T16:00:06.093Z,100695.29
2018-12-04T16:02:33.699Z,100694.36
2018-12-04T16:05:03.067Z,100704.83
2018-12-04T16:07:33.154Z,100704.77
2018-12-04T16:10:00.758Z,100704.33
2018-12-04T16:12:28.403Z,100713.47
2018-12-04T16:14:56.324Z,100712.91
2018-12-04T16:17:24.199Z,100710.55
2018-12-04T16:19:51.846Z,100718.24
2018-12-04T16:22:19.785Z,100720.77
2018-12-04T16:24:47.417Z,100720.66
2018-12-04T16:27:15.146Z,100722.25
2018-12-04T16:29:43.112Z,100718.16
2018-12-04T16:32:10.748Z,100716.67
2018-12-04T16:34:40.925Z,100717.81
2018-12-04T16:37:09.193Z,100727.31
2018-12-04T16:39:36.777Z,100726.79
2018-12-04T16:42:05.054Z,100726.39
2018-12-04T16:44:33.066Z,100731.53
2018-12-04T16:47:00.731Z,100732.66
2018-12-04T16:49:32.309Z,100733.73
2018-12-04T16:52:01.101Z,100739.17
2018-12-04T16:54:28.730Z,100751.77
2018-12-04T16:56:56.345Z,100749.86
2018-12-04T16:59:24.501Z,100750.55
2018-12-04T17:01:52.176Z,100757.87
2018-12-04T17:04:19.798Z,100751.42
2018-12-04T17:06:47.706Z,100759.33
2018-12-04T17:09:16.373Z,100758.84
2018-12-04T17:11:44.670Z,100755.42
2018-12-04T17:14:13.681Z,100755.03
2018-12-04T17:16:41.439Z,100761.23
2018-12-04T17:19:09.223Z,100756.02
2018-12-04T17:21:37.130Z,100758.59
2018-12-04T17:24:05.375Z,100757.61
2018-12-04T17:26:32.986Z,100754.89
2018-12-04T17:29:02.032Z,100753.92
2018-12-04T17:31:32.637Z,100754.31
2018-12-04T17:34:00.266Z,100754.31
2018-12-04T17:36:28.359Z,100762.70
2018-12-04T17:38:56.002Z,100771.98
2018-12-04T17:41:23.630Z,100767.34
2018-12-04T17:43:52.952Z,100767.34
2018-12-04T17:46:20.585Z,100769.19
2018-12-04T17:48:49.088Z,100770.16
2018-12-04T17:51:18.076Z,100772.41
2018-12-04T17:53:45.661Z,100774.65
2018-12-04T17:56:13.559Z,100773.04
2018-12-04T17:58:41.594Z,100775.36
2018-12-04T18:01:09.348Z,100776.79
2018-12-04T18:03:36.941Z,100781.27
2018-12-04T18:06:08.622Z,100784.83
2018-12-04T18:08:37.040Z,100784.44
2018-12-04T18:11:05.689Z,100786.64
2018-12-04T18:13:35.753Z,100791.91
2018-12-04T18:16:03.354Z,100793.36
2018-12-04T18:18:33.258Z,100793.02
2018-12-04T18:21:01.279Z,100791.88
2018-12-04T18:23:28.895Z,100797.78
2018-12-04T18:25:56.523Z,100802.44
2018-12-04T18:28:24.565Z,100800.11
2018-12-04T18:30:52.173Z,100804.06
2018-12-04T18:33:19.790Z,100804.85
2018-12-04T18:35:48.636Z,100801.70
2018-12-04T18:38:17.357Z,100805.20
2018-12-04T18:40:44.993Z,100807.14
2018-12-04T18:43:13.024Z,100810.30
2018-12-04T18:45:40.664Z,100820.48
2018-12-04T18:48:08.280Z,100834.22
2018-12-04T18:50:36.234Z,100828.66
2018-12-04T18:53:06.745Z,100829.22
2018-12-04T18:55:34.359Z,100826.27
2018-12-04T18:58:02.390Z,100824.66
2018-12-04T19:00:30.535Z,100838.69
2018-12-04T19:02:58.171Z,100836.28
2018-12-04T19:05:26.222Z,100836.97
2018-12-04T19:07:53.801Z,100837.75
2018-12-04T19:10:21.717Z,100841.11
2018-12-04T19:12:50.046Z,100844.40
2018-12-04T19:15:17.664Z,100841.53
2018-12-04T19:17:45.297Z,100850.03
2018-12-04T19:20:14.637Z,100852.78
2018-12-04T19:22:42.274Z,100858.55
2018-12-04T19:25:11.681Z,100860.87
2018-12-04T19:27:39.636Z,100867.16
2018-12-04T19:30:08.970Z,100868.41
2018-12-04T19:32:37.401Z,100869.23
2018-12-04T19:35:05.322Z,100874.42
2018-12-04T19:37:33.020Z,100878.80
2018-12-04T19:40:01.694Z,100890.12
2018-12-04T19:42:30.648Z,100880.52
2018-12-04T19:44:58.277Z,100887.13
2018-12-04T19:47:26.537Z,100888.48
2018-12-04T19:49:55.139Z,100891.63
2018-12-04T19:52:22.766Z,100893.95
2018-12-04T19:54:50.485Z,100893.14
2018-12-04T19:57:18.762Z,100892.39
2018-12-04T19:59:46.506Z,100898.16
2018-12-04T20:02:15.223Z,100905.69
2018-12-04T20:04:43.360Z,100902.77
2018-12-04T20:07:11.693Z,100911.61
2018-12-04T20:09:39.343Z,100917.02
2018-12-04T20:12:07.545Z,100925.87
2018-12-04T20:14:35.212Z,100914.55
2018-12-04T20:17:03.477Z,100923.78
2018-12-04T20:19:32.383Z,100920.84
2018-12-04T20:22:00.589Z,100924.45
2018-12-04T20:24:28.291Z,100918.42
2018-12-04T20:26:56.332Z,100919.92
2018-12-04T20:29:23.958Z,100920.91
2018-12-04T20:31:51.636Z,100914.89
2018-12-04T20:34:19.624Z,100911.86
2018-12-04T20:36:49.193Z,100916.20
2018-12-04T20:39:16.805Z,100917.59
2018-12-04T20:41:45.495Z,100923.72
2018-12-04T20:44:13.128Z,100926.35
2018-12-04T20:46:40.832Z,100928.69
2018-12-04T20:49:08.624Z,100923.10
2018-12-04T20:51:38.140Z,100929.88
2018-12-04T20:54:06.096Z,100933.89
2018-12-04T20:56:35.383Z,100943.48
2018-12-04T20:59:03.942Z,100933.75
2018-12-04T21:01:32.089Z,100937.22
2018-12-04T21:03:59.742Z,100937.66
2018-12-04T21:06:28.775Z,100932.00
2018-12-04T21:08:57.557Z,100929.00
2018-12-04T21:11:25.266Z,100935.61
2018-12-04T21:13:54.295Z,100936.01
2018-12-04T21:16:22.414Z,100944.80
2018-12-04T21:18:51.306Z,100956.33
2018-12-04T21:21:20.496Z,100963.57
2018-12-04T21:23:49.137Z,100965.13
2018-12-04T21:26:16.748Z,100965.73
2018-12-04T21:28:49.005Z,100965.39
2018-12-04T21:31:23.600Z,100959.02
2018-12-04T21:33:56.534Z,100958.15
2018-12-04T21:36:29.230Z,100957.74
2018-12-04T21:39:05.029Z,100952.93
2018-12-04T21:41:37.736Z,100950.81
2018-12-04T21:44:11.415Z,100954.24
2018-12-04T21:46:45.007Z,100957.71
2018-12-04T21:49:12.664Z,100958.55
2018-12-04T21:51:40.659Z,100964.17
2018-12-04T21:54:08.311Z,100968.48
2018-12-04T21:56:35.995Z,100963.64
2018-12-04T21:59:04.608Z,100960.10
2018-12-04T22:01:32.553Z,100956.53
2018-12-04T22:04:00.172Z,100953.77
2018-12-04T22:06:28.767Z,100959.47
2018-12-04T22:08:56.749Z,100961.28
2018-12-04T22:11:24.774Z,100961.69
2018-12-04T22:13:52.504Z,100956.50
2018-12-04T22:16:20.110Z,100957.88
2018-12-04T22:18:47.746Z,100952.73
2018-12-04T22:21:15.422Z,100959.83
2018-12-04T22:23:43.531Z,100964.75
2018-12-04T22:26:11.208Z,100968.38
2018-12-04T22:28:38.809Z,100971.47
2018-12-04T22:31:06.735Z,100972.07
2018-12-04T22:33:34.336Z,100972.64
2018-12-04T22:36:03.146Z,100973.64
2018-12-04T22:38:30.862Z,100983.77
2018-12-04T22:40:58.782Z,100983.70
2018-12-04T22:43:26.414Z,100983.64
2018-12-04T22:45:54.059Z,100981.42
2018-12-04T22:48:21.682Z,100982.30
2018-12-04T22:50:49.541Z,100982.60
2018-12-04T22:53:17.716Z,100993.48
2018-12-04T22:55:45.821Z,100990.34
2018-12-04T22:58:13.453Z,100987.22
2018-12-04T23:00:42.648Z,100992.94
2018-12-04T23:03:10.655Z,100984.59
2018-12-04T23:05:38.298Z,100985.91
2018-12-04T23:08:05.979Z,100980.25
2018-12-04T23:10:33.643Z,100981.56
2018-12-04T23:13:01.693Z,100980.25
2018-12-04T23:15:30.513Z,100979.00
2018-12-04T23:17:58.359Z,100979.81
2018-12-04T23:20:26.014Z,100975.84
2018-12-04T23:22:54.118Z,100974.03
2018-12-04T23:25:21.749Z,100973.50
2018-12-04T23:27:49.350Z,100970.84
2018-12-04T23:30:16.993Z,100967.23
2018-12-04T23:32:45.017Z,100969.80
2018-12-04T23:35:12.613Z,100963.61
2018-12-04T23:37:40.324Z,100962.59
2018-12-04T23:40:07.954Z,100965.13
2018-12-04T23:42:35.891Z,100971.58
2018-12-04T23:45:03.529Z,100968.35
2018-12-04T23:47:31.123Z,100959.52
2018-12-04T23:49:58.758Z,100950.70
2018-12-04T23:52:26.394Z,100950.16
2018-12-04T23:54:54.422Z,100959.25
2018-12-04T23:57:22.029Z,100957.91
2018-12-04T23:59:49.640Z,100950.39
